createdAt,value
2018-12-11T00:00:44.725Z,91.24
2018-12-11T00:01:44.854Z,91.33
2018-12-11T00:02:44.983Z,91.42
2018-12-11T00:03:45.116Z,91.28
2018-12-11T00:04:45.246Z,91.42
2018-12-11T00:05:45.369Z,91.24
2018-12-11T00:06:45.498Z,91.42
2018-12-11T00:07:45.627Z,91.61
2018-12-11T00:08:45.748Z,91.80
2018-12-11T00:09:45.879Z,91.99
2018-12-11T00:10:46.007Z,91.99
2018-12-11T00:11:46.134Z,91.80
2018-12-11T00:12:46.260Z,92.18
2018-12-11T00:13:46.393Z,92.09
2018-12-11T00:14:46.517Z,91.90
2018-12-11T00:15:46.648Z,91.99
2018-12-11T00:16:46.777Z,91.71
2018-12-11T00:17:46.903Z,91.61
2018-12-11T00:18:47.031Z,91.52
2018-12-11T00:19:47.163Z,91.14
2018-12-11T00:20:47.289Z,91.33
2018-12-11T00:21:47.418Z,91.38
2018-12-11T00:22:47.546Z,91.05
2018-12-11T00:23:47.676Z,91.38
2018-12-11T00:24:47.806Z,91.14
2018-12-11T00:25:47.934Z,91.19
2018-12-11T00:26:48.070Z,91.00
2018-12-11T00:27:48.199Z,91.56
2018-12-11T00:28:48.330Z,91.47
2018-12-11T00:29:48.452Z,91.38
2018-12-11T00:30:48.582Z,91.09
2018-12-11T00:31:48.710Z,91.00
2018-12-11T00:32:48.835Z,91.47
2018-12-11T00:33:49.006Z,91.09
2018-12-11T00:34:49.163Z,91.28
2018-12-11T00:35:49.300Z,91.19
2018-12-11T00:36:49.412Z,91.28
2018-12-11T00:37:49.557Z,90.95
2018-12-11T00:38:49.690Z,91.28
2018-12-11T00:39:49.818Z,91.00
2018-12-11T00:40:49.947Z,91.28
2018-12-11T00:41:50.077Z,91.38
2018-12-11T00:42:50.205Z,91.24
2018-12-11T00:43:50.332Z,90.95
2018-12-11T00:44:50.465Z,91.19
2018-12-11T00:45:50.586Z,90.81
2018-12-11T00:46:50.716Z,91.00
2018-12-11T00:47:50.854Z,91.28
2018-12-11T00:48:50.986Z,91.47
2018-12-11T00:49:51.106Z,91.47
2018-12-11T00:50:51.260Z,91.28
2018-12-11T00:51:51.386Z,91.47
2018-12-11T00:52:51.512Z,91.56
2018-12-11T00:53:51.640Z,90.81
2018-12-11T00:54:51.771Z,91.33
2018-12-11T00:55:51.905Z,91.09
2018-12-11T00:56:52.038Z,91.33
2018-12-11T00:57:52.165Z,91.28
2018-12-11T00:58:52.299Z,91.38
2018-12-11T00:59:52.423Z,91.24
2018-12-11T01:00:52.557Z,91.66
2018-12-11T01:01:52.685Z,91.42
2018-12-11T01:02:52.816Z,91.00
2018-12-11T01:03:52.936Z,91.05
2018-12-11T01:04:53.074Z,91.00
2018-12-11T01:05:53.205Z,91.05
2018-12-11T01:06:53.333Z,90.90
2018-12-11T01:07:53.464Z,90.62
2018-12-11T01:08:53.594Z,90.52
2018-12-11T01:09:53.717Z,90.90
2018-12-11T01:10:53.848Z,90.52
2018-12-11T01:11:53.989Z,91.09
2018-12-11T01:12:54.123Z,90.43
2018-12-11T01:13:54.239Z,90.52
2018-12-11T01:14:54.374Z,89.95
2018-12-11T01:15:54.501Z,89.86
2018-12-11T01:16:54.656Z,90.33
2018-12-11T01:17:54.761Z,90.33
2018-12-11T01:18:54.889Z,90.14
2018-12-11T01:19:55.022Z,89.58
2018-12-11T01:20:55.139Z,89.86
2018-12-11T01:21:55.270Z,89.25
2018-12-11T01:22:55.403Z,90.24
2018-12-11T01:23:55.532Z,89.91
2018-12-11T01:24:55.670Z,90.10
2018-12-11T01:25:55.800Z,89.91
2018-12-11T01:26:55.926Z,90.76
2018-12-11T01:27:56.051Z,90.19
2018-12-11T01:28:56.181Z,91.05
2018-12-11T01:29:56.309Z,90.86
2018-12-11T01:30:56.442Z,90.76
2018-12-11T01:31:56.570Z,90.76
2018-12-11T01:32:56.693Z,90.90
2018-12-11T01:33:56.830Z,90.86
2018-12-11T01:34:56.956Z,90.38
2018-12-11T01:35:57.083Z,90.48
2018-12-11T01:36:57.211Z,90.38
2018-12-11T01:37:57.343Z,91.05
2018-12-11T01:38:57.475Z,90.67
2018-12-11T01:39:57.595Z,90.57
2018-12-11T01:40:57.726Z,90.90
2018-12-11T01:41:57.861Z,90.57
2018-12-11T01:42:57.995Z,90.90
2018-12-11T01:43:58.122Z,90.33
2018-12-11T01:44:58.250Z,90.52
2018-12-11T01:45:58.384Z,90.90
2018-12-11T01:46:58.510Z,90.90
2018-12-11T01:47:58.646Z,90.62
2018-12-11T01:48:58.769Z,90.62
2018-12-11T01:49:58.901Z,91.09
2018-12-11T01:50:59.039Z,90.29
2018-12-11T01:51:59.166Z,90.19
2018-12-11T01:52:59.294Z,90.90
2018-12-11T01:53:59.420Z,90.67
2018-12-11T01:54:59.550Z,90.86
2018-12-11T01:55:59.678Z,90.90
2018-12-11T01:56:59.808Z,90.29
2018-12-11T01:57:59.936Z,90.38
2018-12-11T01:59:00.057Z,90.48
2018-12-11T02:00:00.189Z,90.48
2018-12-11T02:01:00.315Z,90.38
2018-12-11T02:02:00.450Z,90.38
2018-12-11T02:03:00.576Z,90.90
2018-12-11T02:04:00.705Z,90.38
2018-12-11T02:05:00.834Z,90.62
2018-12-11T02:06:00.964Z,90.62
2018-12-11T02:07:01.093Z,90.43
2018-12-11T02:08:01.229Z,90.05
2018-12-11T02:09:01.363Z,89.95
2018-12-11T02:10:01.486Z,90.14
2018-12-11T02:11:01.651Z,90.14
2018-12-11T02:12:01.796Z,90.33
2018-12-11T02:13:01.921Z,90.10
2018-12-11T02:14:02.057Z,90.67
2018-12-11T02:15:02.185Z,90.38
2018-12-11T02:16:02.314Z,90.76
2018-12-11T02:17:02.436Z,90.86
2018-12-11T02:18:02.565Z,91.05
2018-12-11T02:19:02.699Z,91.14
2018-12-11T02:20:02.827Z,91.71
2018-12-11T02:21:02.952Z,91.52
2018-12-11T02:22:03.082Z,91.71
2018-12-11T02:23:03.205Z,91.42
2018-12-11T02:24:03.335Z,91.99
2018-12-11T02:25:03.478Z,91.99
2018-12-11T02:26:03.606Z,91.90
2018-12-11T02:27:03.728Z,91.90
2018-12-11T02:28:03.862Z,91.71
2018-12-11T02:29:03.995Z,92.09
2018-12-11T02:30:04.119Z,92.28
2018-12-11T02:31:04.246Z,92.28
2018-12-11T02:32:04.380Z,92.18
2018-12-11T02:33:04.500Z,92.18
2018-12-11T02:34:04.636Z,92.28
2018-12-11T02:35:04.792Z,92.47
2018-12-11T02:36:04.889Z,91.99
2018-12-11T02:37:05.018Z,91.90
2018-12-11T02:38:05.150Z,91.05
2018-12-11T02:39:05.284Z,91.24
2018-12-11T02:40:05.409Z,91.24
2018-12-11T02:41:05.536Z,91.42
2018-12-11T02:42:05.683Z,90.76
2018-12-11T02:43:05.801Z,91.24
2018-12-11T02:44:05.921Z,91.52
2018-12-11T02:45:06.048Z,91.71
2018-12-11T02:46:06.180Z,92.18
2018-12-11T02:47:06.313Z,91.90
2018-12-11T02:48:06.437Z,91.90
2018-12-11T02:49:06.566Z,91.52
2018-12-11T02:50:06.699Z,91.05
2018-12-11T02:51:06.827Z,91.24
2018-12-11T02:52:06.945Z,91.24
2018-12-11T02:53:07.077Z,91.33
2018-12-11T02:54:07.205Z,90.95
2018-12-11T02:55:07.327Z,90.95
2018-12-11T02:56:07.525Z,90.86
2018-12-11T02:57:07.587Z,91.24
2018-12-11T02:58:07.717Z,91.24
2018-12-11T02:59:07.847Z,90.86
2018-12-11T03:00:07.973Z,91.24
2018-12-11T03:01:08.115Z,90.95
2018-12-11T03:02:08.234Z,91.05
2018-12-11T03:03:08.364Z,91.05
2018-12-11T03:04:08.493Z,90.95
2018-12-11T03:05:08.621Z,91.14
2018-12-11T03:06:08.759Z,91.24
2018-12-11T03:07:08.886Z,90.86
2018-12-11T03:08:09.015Z,91.05
2018-12-11T03:09:09.141Z,90.86
2018-12-11T03:10:09.276Z,90.86
2018-12-11T03:11:09.405Z,91.05
2018-12-11T03:12:09.541Z,91.47
2018-12-11T03:13:09.663Z,91.24
2018-12-11T03:14:09.799Z,91.00
2018-12-11T03:15:09.931Z,91.00
2018-12-11T03:16:10.056Z,91.19
2018-12-11T03:17:10.183Z,90.62
2018-12-11T03:18:10.312Z,90.90
2018-12-11T03:19:10.443Z,90.43
2018-12-11T03:20:10.572Z,90.90
2018-12-11T03:21:10.706Z,91.00
2018-12-11T03:22:10.835Z,90.24
2018-12-11T03:23:10.962Z,90.62
2018-12-11T03:24:11.087Z,90.43
2018-12-11T03:25:11.222Z,90.29
2018-12-11T03:26:11.344Z,91.14
2018-12-11T03:27:11.476Z,91.24
2018-12-11T03:28:11.605Z,91.14
2018-12-11T03:29:11.735Z,91.42
2018-12-11T03:30:11.866Z,91.33
2018-12-11T03:31:11.989Z,91.24
2018-12-11T03:32:12.118Z,91.52
2018-12-11T03:33:12.247Z,91.52
2018-12-11T03:34:12.368Z,91.33
2018-12-11T03:35:12.499Z,91.90
2018-12-11T03:36:12.638Z,91.90
2018-12-11T03:37:12.759Z,91.71
2018-12-11T03:38:12.894Z,91.61
2018-12-11T03:39:13.025Z,91.52
2018-12-11T03:40:13.161Z,91.90
2018-12-11T03:41:13.288Z,91.71
2018-12-11T03:42:13.425Z,91.52
2018-12-11T03:43:13.568Z,91.90
2018-12-11T03:44:13.681Z,91.71
2018-12-11T03:45:13.807Z,92.28
2018-12-11T03:46:13.937Z,91.99
2018-12-11T03:47:14.060Z,92.38
2018-12-11T03:48:14.189Z,92.66
2018-12-11T03:49:14.317Z,92.18
2018-12-11T03:50:14.452Z,92.38
2018-12-11T03:51:14.579Z,92.38
2018-12-11T03:52:21.182Z,92.09
2018-12-11T03:53:14.840Z,92.47
2018-12-11T03:54:14.972Z,92.57
2018-12-11T03:55:15.093Z,91.90
2018-12-11T03:56:15.227Z,91.80
2018-12-11T03:57:15.354Z,91.99
2018-12-11T03:58:15.479Z,91.80
2018-12-11T03:59:15.664Z,91.71
2018-12-11T04:00:15.687Z,91.52
2018-12-11T04:01:15.811Z,91.61
2018-12-11T04:02:15.945Z,91.90
2018-12-11T04:03:16.076Z,91.71
2018-12-11T04:04:16.203Z,91.71
2018-12-11T04:05:16.330Z,91.90
2018-12-11T04:06:16.458Z,91.99
2018-12-11T04:07:16.587Z,91.71
2018-12-11T04:08:16.714Z,91.71
2018-12-11T04:09:16.846Z,91.52
2018-12-11T04:10:16.969Z,91.33
2018-12-11T04:11:17.098Z,91.61
2018-12-11T04:12:17.240Z,91.24
2018-12-11T04:13:17.384Z,91.33
2018-12-11T04:14:17.500Z,91.42
2018-12-11T04:15:17.635Z,90.95
2018-12-11T04:16:17.762Z,90.95
2018-12-11T04:17:17.894Z,91.42
2018-12-11T04:18:18.031Z,91.52
2018-12-11T04:19:18.149Z,91.00
2018-12-11T04:20:18.273Z,90.76
2018-12-11T04:21:18.405Z,91.66
2018-12-11T04:22:18.531Z,91.42
2018-12-11T04:23:18.656Z,91.61
2018-12-11T04:24:18.787Z,91.71
2018-12-11T04:25:18.916Z,91.52
2018-12-11T04:26:19.139Z,91.42
2018-12-11T04:27:19.185Z,91.05
2018-12-11T04:28:19.306Z,91.33
2018-12-11T04:29:19.433Z,91.61
2018-12-11T04:30:19.592Z,91.61
2018-12-11T04:31:19.719Z,91.90
2018-12-11T04:32:19.847Z,91.90
2018-12-11T04:33:20.008Z,91.90
2018-12-11T04:34:20.132Z,92.18
2018-12-11T04:35:20.266Z,92.18
2018-12-11T04:36:20.387Z,92.28
2018-12-11T04:37:20.517Z,91.99
2018-12-11T04:38:20.646Z,92.28
2018-12-11T04:39:20.771Z,92.47
2018-12-11T04:40:20.897Z,92.57
2018-12-11T04:41:21.021Z,91.99
2018-12-11T04:42:21.149Z,92.09
2018-12-11T04:43:21.277Z,92.28
2018-12-11T04:44:21.401Z,92.28
2018-12-11T04:45:21.529Z,91.99
2018-12-11T04:46:21.659Z,91.90
2018-12-11T04:47:21.788Z,92.38
2018-12-11T04:48:21.917Z,92.28
2018-12-11T04:49:22.058Z,92.09
2018-12-11T04:50:22.182Z,91.99
2018-12-11T04:51:22.309Z,91.90
2018-12-11T04:52:22.437Z,91.71
2018-12-11T04:53:22.572Z,91.52
2018-12-11T04:54:22.697Z,91.61
2018-12-11T04:55:22.823Z,91.33
2018-12-11T04:56:22.952Z,91.24
2018-12-11T04:57:23.076Z,91.52
2018-12-11T04:58:23.205Z,91.52
2018-12-11T04:59:23.334Z,90.76
2018-12-11T05:00:23.464Z,91.05
2018-12-11T05:01:23.597Z,90.38
2018-12-11T05:02:23.724Z,90.95
2018-12-11T05:03:23.846Z,90.29
2018-12-11T05:04:23.988Z,90.76
2018-12-11T05:05:24.117Z,90.76
2018-12-11T05:06:24.247Z,90.86
2018-12-11T05:07:24.368Z,90.67
2018-12-11T05:08:24.498Z,91.05
2018-12-11T05:09:24.623Z,90.76
2018-12-11T05:10:24.752Z,91.33
2018-12-11T05:11:24.882Z,90.95
2018-12-11T05:12:25.014Z,91.24
2018-12-11T05:13:25.141Z,91.14
2018-12-11T05:14:25.279Z,91.33
2018-12-11T05:15:25.397Z,91.33
2018-12-11T05:16:25.525Z,90.38
2018-12-11T05:17:25.654Z,90.76
2018-12-11T05:18:25.781Z,90.00
2018-12-11T05:19:25.906Z,90.10
2018-12-11T05:20:26.035Z,90.00
2018-12-11T05:21:26.161Z,89.86
2018-12-11T05:22:26.293Z,90.05
2018-12-11T05:23:26.423Z,90.24
2018-12-11T05:24:26.563Z,89.81
2018-12-11T05:25:26.693Z,90.14
2018-12-11T05:26:26.819Z,90.24
2018-12-11T05:27:26.951Z,89.76
2018-12-11T05:28:27.084Z,89.67
2018-12-11T05:29:27.217Z,89.86
2018-12-11T05:30:27.344Z,89.86
2018-12-11T05:31:27.475Z,89.58
2018-12-11T05:32:27.607Z,90.24
2018-12-11T05:33:27.732Z,90.24
2018-12-11T05:34:27.865Z,90.24
2018-12-11T05:35:27.990Z,90.33
2018-12-11T05:36:28.120Z,90.05
2018-12-11T05:37:28.269Z,90.24
2018-12-11T05:38:28.398Z,89.76
2018-12-11T05:39:28.530Z,89.58
2018-12-11T05:40:28.660Z,90.24
2018-12-11T05:41:28.787Z,89.76
2018-12-11T05:42:28.911Z,89.76
2018-12-11T05:43:29.042Z,90.43
2018-12-11T05:44:29.170Z,90.14
2018-12-11T05:45:29.298Z,90.24
2018-12-11T05:46:29.428Z,89.58
2018-12-11T05:47:29.566Z,89.95
2018-12-11T05:48:29.696Z,89.48
2018-12-11T05:49:29.829Z,89.76
2018-12-11T05:50:29.961Z,89.48
2018-12-11T05:51:30.084Z,89.39
2018-12-11T05:52:30.213Z,89.39
2018-12-11T05:53:30.348Z,89.58
2018-12-11T05:54:30.477Z,89.48
2018-12-11T05:55:30.604Z,89.58
2018-12-11T05:56:30.730Z,89.48
2018-12-11T05:57:30.865Z,89.39
2018-12-11T05:58:30.999Z,90.24
2018-12-11T05:59:31.121Z,90.43
2018-12-11T06:00:31.251Z,89.76
2018-12-11T06:01:31.383Z,89.72
2018-12-11T06:02:31.508Z,90.19
2018-12-11T06:03:31.641Z,90.00
2018-12-11T06:04:31.781Z,90.24
2018-12-11T06:05:31.903Z,90.14
2018-12-11T06:06:32.035Z,90.33
2018-12-11T06:07:32.161Z,90.00
2018-12-11T06:08:32.288Z,90.10
2018-12-11T06:09:32.418Z,90.00
2018-12-11T06:10:32.543Z,90.05
2018-12-11T06:11:32.670Z,89.81
2018-12-11T06:12:32.808Z,89.81
2018-12-11T06:13:32.934Z,90.00
2018-12-11T06:14:33.076Z,90.19
2018-12-11T06:15:33.186Z,90.24
2018-12-11T06:16:33.315Z,90.24
2018-12-11T06:17:33.446Z,90.38
2018-12-11T06:18:33.574Z,90.00
2018-12-11T06:19:33.706Z,90.33
2018-12-11T06:20:34.566Z,90.24
2018-12-11T06:21:33.972Z,90.24
2018-12-11T06:22:34.102Z,89.76
2018-12-11T06:23:34.231Z,90.33
2018-12-11T06:24:34.362Z,90.24
2018-12-11T06:25:34.498Z,90.05
2018-12-11T06:26:34.621Z,89.86
2018-12-11T06:27:34.745Z,89.58
2018-12-11T06:28:36.236Z,89.62
2018-12-11T06:29:35.007Z,90.29
2018-12-11T06:30:35.136Z,90.19
2018-12-11T06:31:35.266Z,90.29
2018-12-11T06:32:35.399Z,90.00
2018-12-11T06:33:35.526Z,90.10
2018-12-11T06:34:35.660Z,89.95
2018-12-11T06:35:35.787Z,90.19
2018-12-11T06:36:35.918Z,90.29
2018-12-11T06:37:36.045Z,90.10
2018-12-11T06:38:36.173Z,90.10
2018-12-11T06:39:36.314Z,90.00
2018-12-11T06:40:36.441Z,89.91
2018-12-11T06:41:36.568Z,90.48
2018-12-11T06:42:36.691Z,90.29
2018-12-11T06:43:36.821Z,90.00
2018-12-11T06:44:36.952Z,90.00
2018-12-11T06:45:37.075Z,89.91
2018-12-11T06:46:37.205Z,89.81
2018-12-11T06:47:37.330Z,90.48
2018-12-11T06:48:37.462Z,90.29
2018-12-11T06:49:37.588Z,90.38
2018-12-11T06:50:37.721Z,90.48
2018-12-11T06:51:37.849Z,90.38
2018-12-11T06:52:37.971Z,90.29
2018-12-11T06:53:38.110Z,90.38
2018-12-11T06:54:38.237Z,90.76
2018-12-11T06:55:38.371Z,90.57
2018-12-11T06:56:38.499Z,90.00
2018-12-11T06:57:38.629Z,89.81
2018-12-11T06:58:38.758Z,90.00
2018-12-11T06:59:38.888Z,90.29
2018-12-11T07:00:39.018Z,89.81
2018-12-11T07:01:39.988Z,90.14
2018-12-11T07:02:39.270Z,89.81
2018-12-11T07:03:39.397Z,90.19
2018-12-11T07:04:39.519Z,90.00
2018-12-11T07:05:39.653Z,90.00
2018-12-11T07:06:39.780Z,90.10
2018-12-11T07:07:39.909Z,90.19
2018-12-11T07:08:40.031Z,90.00
2018-12-11T07:09:40.163Z,90.05
2018-12-11T07:10:40.287Z,89.72
2018-12-11T07:11:40.415Z,90.19
2018-12-11T07:12:40.544Z,90.19
2018-12-11T07:13:40.678Z,90.14
2018-12-11T07:14:40.811Z,89.72
2018-12-11T07:15:40.990Z,89.29
2018-12-11T07:16:41.062Z,89.34
2018-12-11T07:17:41.190Z,89.29
2018-12-11T07:18:41.327Z,89.34
2018-12-11T07:19:41.449Z,90.14
2018-12-11T07:20:41.583Z,90.00
2018-12-11T07:21:41.713Z,90.29
2018-12-11T07:22:41.841Z,90.10
2018-12-11T07:23:41.969Z,90.10
2018-12-11T07:24:42.094Z,90.10
2018-12-11T07:25:42.230Z,90.19
2018-12-11T07:26:42.352Z,90.10
2018-12-11T07:27:42.483Z,90.10
2018-12-11T07:28:42.609Z,90.29
2018-12-11T07:29:42.737Z,89.91
2018-12-11T07:30:42.863Z,89.62
2018-12-11T07:31:42.994Z,89.91
2018-12-11T07:32:43.129Z,89.91
2018-12-11T07:33:43.259Z,90.29
2018-12-11T07:34:43.385Z,90.10
2018-12-11T07:35:43.521Z,89.91
2018-12-11T07:36:43.650Z,90.00
2018-12-11T07:37:43.778Z,90.29
2018-12-11T07:38:43.904Z,89.76
2018-12-11T07:39:44.030Z,90.24
2018-12-11T07:40:44.168Z,89.48
2018-12-11T07:41:44.296Z,89.76
2018-12-11T07:42:44.424Z,89.95
2018-12-11T07:43:44.553Z,89.95
2018-12-11T07:44:44.675Z,89.39
2018-12-11T07:45:44.810Z,89.76
2018-12-11T07:46:44.939Z,90.05
2018-12-11T07:47:45.062Z,89.72
2018-12-11T07:48:45.197Z,89.76
2018-12-11T07:49:45.330Z,89.58
2018-12-11T07:50:45.457Z,89.48
2018-12-11T07:51:45.586Z,89.53
2018-12-11T07:52:45.728Z,90.05
2018-12-11T07:53:45.853Z,89.58
2018-12-11T07:54:45.980Z,89.48
2018-12-11T07:55:46.115Z,89.76
2018-12-11T07:56:46.243Z,89.58
2018-12-11T07:57:46.375Z,89.39
2018-12-11T07:58:46.508Z,89.29
2018-12-11T07:59:46.638Z,89.58
2018-12-11T08:00:46.768Z,89.39
2018-12-11T08:01:46.900Z,89.58
2018-12-11T08:02:47.032Z,89.53
2018-12-11T08:03:47.164Z,89.67
2018-12-11T08:04:47.285Z,89.29
2018-12-11T08:05:47.416Z,89.48
2018-12-11T08:06:47.547Z,89.58
2018-12-11T08:07:47.676Z,89.48
2018-12-11T08:08:47.802Z,89.20
2018-12-11T08:09:48.487Z,89.58
2018-12-11T08:10:48.027Z,89.48
2018-12-11T08:11:48.150Z,89.58
2018-12-11T08:12:48.287Z,89.39
2018-12-11T08:13:48.445Z,89.20
2018-12-11T08:14:48.535Z,89.67
2018-12-11T08:15:48.664Z,89.86
2018-12-11T08:16:48.792Z,89.76
2018-12-11T08:17:48.924Z,89.76
2018-12-11T08:18:49.099Z,89.58
2018-12-11T08:19:49.192Z,90.24
2018-12-11T08:20:49.327Z,90.24
2018-12-11T08:21:49.457Z,90.24
2018-12-11T08:22:49.583Z,89.95
2018-12-11T08:23:49.708Z,89.58
2018-12-11T08:24:49.835Z,89.48
2018-12-11T08:25:49.965Z,89.39
2018-12-11T08:26:50.115Z,89.39
2018-12-11T08:27:50.247Z,89.10
2018-12-11T08:28:50.378Z,89.58
2018-12-11T08:29:50.504Z,89.48
2018-12-11T08:30:50.631Z,89.39
2018-12-11T08:31:50.762Z,89.29
2018-12-11T08:32:50.895Z,89.48
2018-12-11T08:33:51.025Z,89.10
2018-12-11T08:34:52.545Z,89.67
2018-12-11T08:35:51.293Z,89.95
2018-12-11T08:36:51.420Z,89.58
2018-12-11T08:37:51.552Z,89.58
2018-12-11T08:38:51.678Z,90.14
2018-12-11T08:39:51.809Z,90.33
2018-12-11T08:40:51.941Z,89.58
2018-12-11T08:41:52.067Z,89.48
2018-12-11T08:42:52.197Z,89.72
2018-12-11T08:43:52.326Z,90.24
2018-12-11T08:44:52.454Z,90.24
2018-12-11T08:45:52.581Z,89.76
2018-12-11T08:46:52.713Z,89.58
2018-12-11T08:47:52.852Z,89.58
2018-12-11T08:48:59.596Z,89.58
2018-12-11T08:49:53.096Z,89.48
2018-12-11T08:50:53.229Z,89.39
2018-12-11T08:51:53.360Z,89.67
2018-12-11T08:52:53.486Z,90.14
2018-12-11T08:53:53.620Z,89.43
2018-12-11T08:54:53.762Z,89.43
2018-12-11T08:55:53.893Z,89.86
2018-12-11T08:56:54.022Z,89.62
2018-12-11T08:57:54.221Z,89.53
2018-12-11T08:58:55.395Z,90.05
2018-12-11T08:59:54.344Z,89.48
2018-12-11T09:00:54.478Z,89.29
2018-12-11T09:01:54.636Z,90.43
2018-12-11T09:02:54.767Z,89.76
2018-12-11T09:03:54.892Z,90.38
2018-12-11T09:04:55.027Z,90.14
2018-12-11T09:05:55.160Z,89.39
2018-12-11T09:06:55.285Z,90.05
2018-12-11T09:07:55.413Z,89.58
2018-12-11T09:08:55.541Z,90.05
2018-12-11T09:09:55.673Z,90.10
2018-12-11T09:10:55.794Z,89.25
2018-12-11T09:11:55.926Z,90.05
2018-12-11T09:12:56.059Z,89.48
2018-12-11T09:13:56.191Z,89.39
2018-12-11T09:14:56.318Z,89.76
2018-12-11T09:15:56.447Z,89.48
2018-12-11T09:16:56.574Z,89.76
2018-12-11T09:17:56.724Z,90.10
2018-12-11T09:18:56.925Z,89.76
2018-12-11T09:19:56.932Z,89.67
2018-12-11T09:20:57.061Z,89.29
2018-12-11T09:21:57.192Z,89.48
2018-12-11T09:22:57.317Z,89.00
2018-12-11T09:23:57.449Z,89.39
2018-12-11T09:24:57.577Z,89.39
2018-12-11T09:25:57.702Z,89.48
2018-12-11T09:26:57.847Z,89.39
2018-12-11T09:27:57.975Z,89.91
2018-12-11T09:28:58.103Z,90.10
2018-12-11T09:29:58.237Z,90.10
2018-12-11T09:30:58.368Z,90.10
2018-12-11T09:31:58.490Z,90.29
2018-12-11T09:32:58.620Z,90.24
2018-12-11T09:33:58.747Z,90.43
2018-12-11T09:34:58.876Z,89.95
2018-12-11T09:35:59.005Z,90.14
2018-12-11T09:36:59.138Z,90.24
2018-12-11T09:37:59.267Z,90.14
2018-12-11T09:38:59.459Z,89.76
2018-12-11T09:39:59.527Z,90.14
2018-12-11T09:40:59.666Z,90.24
2018-12-11T09:41:59.794Z,90.52
2018-12-11T09:42:59.931Z,89.86
2018-12-11T09:44:00.070Z,90.14
2018-12-11T09:45:00.196Z,89.95
2018-12-11T09:46:00.322Z,90.71
2018-12-11T09:47:00.452Z,90.90
2018-12-11T09:48:00.582Z,90.62
2018-12-11T09:49:00.727Z,91.19
2018-12-11T09:50:00.856Z,91.19
2018-12-11T09:51:00.993Z,90.43
2018-12-11T09:52:01.115Z,90.62
2018-12-11T09:53:01.267Z,90.71
2018-12-11T09:54:01.396Z,90.62
2018-12-11T09:55:01.523Z,90.81
2018-12-11T09:56:01.657Z,90.71
2018-12-11T09:57:01.805Z,90.52
2018-12-11T09:58:17.844Z,90.90
2018-12-11T09:59:02.089Z,89.95
2018-12-11T10:00:02.219Z,90.05
2018-12-11T10:01:02.353Z,89.95
2018-12-11T10:02:02.481Z,90.43
2018-12-11T10:03:02.608Z,90.52
2018-12-11T10:04:02.738Z,90.24
2018-12-11T10:05:02.869Z,90.71
2018-12-11T10:06:02.999Z,90.52
2018-12-11T10:07:03.125Z,91.28
2018-12-11T10:08:03.257Z,91.56
2018-12-11T10:09:03.387Z,91.28
2018-12-11T10:10:03.519Z,91.66
2018-12-11T10:11:03.658Z,91.66
2018-12-11T10:12:03.784Z,91.94
2018-12-11T10:13:03.920Z,92.04
2018-12-11T10:14:04.056Z,92.42
2018-12-11T10:15:04.248Z,92.61
2018-12-11T10:16:04.373Z,92.61
2018-12-11T10:17:04.503Z,92.33
2018-12-11T10:18:04.634Z,92.42
2018-12-11T10:19:04.791Z,92.33
2018-12-11T10:20:05.532Z,92.14
2018-12-11T10:21:05.043Z,92.04
2018-12-11T10:22:05.183Z,92.42
2018-12-11T10:23:05.306Z,92.33
2018-12-11T10:24:05.435Z,92.71
2018-12-11T10:25:05.558Z,92.99
2018-12-11T10:26:05.689Z,92.14
2018-12-11T10:27:05.826Z,92.52
2018-12-11T10:28:05.955Z,92.71
2018-12-11T10:29:06.079Z,92.90
2018-12-11T10:30:06.263Z,92.33
2018-12-11T10:31:06.389Z,92.61
2018-12-11T10:32:06.514Z,93.37
2018-12-11T10:33:06.640Z,92.90
2018-12-11T10:34:06.782Z,92.71
2018-12-11T10:35:06.909Z,92.99
2018-12-11T10:36:07.047Z,93.18
2018-12-11T10:37:07.174Z,93.65
2018-12-11T10:38:07.305Z,92.61
2018-12-11T10:39:07.438Z,92.80
2018-12-11T10:40:07.565Z,92.52
2018-12-11T10:41:07.703Z,92.23
2018-12-11T10:42:07.834Z,92.52
2018-12-11T10:43:07.982Z,92.42
2018-12-11T10:44:08.149Z,92.52
2018-12-11T10:45:08.277Z,92.14
2018-12-11T10:46:08.414Z,92.33
2018-12-11T10:47:08.540Z,92.33
2018-12-11T10:48:08.679Z,92.42
2018-12-11T10:49:08.804Z,93.18
2018-12-11T10:50:08.936Z,93.18
2018-12-11T10:51:09.066Z,93.08
2018-12-11T10:52:09.193Z,92.23
2018-12-11T10:53:09.318Z,92.14
2018-12-11T10:54:09.441Z,92.52
2018-12-11T10:55:09.572Z,92.42
2018-12-11T10:56:09.702Z,92.42
2018-12-11T10:57:09.821Z,92.52
2018-12-11T10:58:09.958Z,92.42
2018-12-11T10:59:10.389Z,92.52
2018-12-11T11:00:10.211Z,92.42
2018-12-11T11:01:10.337Z,93.56
2018-12-11T11:02:10.468Z,93.27
2018-12-11T11:03:10.598Z,93.27
2018-12-11T11:04:10.726Z,93.27
2018-12-11T11:05:10.860Z,92.71
2018-12-11T11:06:10.998Z,93.37
2018-12-11T11:07:11.124Z,92.61
2018-12-11T11:08:11.251Z,92.61
2018-12-11T11:09:11.382Z,92.52
2018-12-11T11:10:11.523Z,92.42
2018-12-11T11:11:11.657Z,92.33
2018-12-11T11:12:11.774Z,92.52
2018-12-11T11:13:11.917Z,92.33
2018-12-11T11:14:12.046Z,92.42
2018-12-11T11:15:12.168Z,92.14
2018-12-11T11:16:12.297Z,91.94
2018-12-11T11:17:12.433Z,91.56
2018-12-11T11:18:12.554Z,91.56
2018-12-11T11:19:12.684Z,91.47
2018-12-11T11:20:12.817Z,91.38
2018-12-11T11:21:12.945Z,91.75
2018-12-11T11:22:13.075Z,91.94
2018-12-11T11:23:13.201Z,91.94
2018-12-11T11:24:13.340Z,91.75
2018-12-11T11:25:16.201Z,92.04
2018-12-11T11:26:13.574Z,91.94
2018-12-11T11:27:13.709Z,92.04
2018-12-11T11:28:13.837Z,92.33
2018-12-11T11:29:13.965Z,92.04
2018-12-11T11:30:14.109Z,92.28
2018-12-11T11:31:14.238Z,91.89
2018-12-11T11:32:14.371Z,92.28
2018-12-11T11:33:14.502Z,91.71
2018-12-11T11:34:14.627Z,91.71
2018-12-11T11:35:14.756Z,91.71
2018-12-11T11:36:14.884Z,91.42
2018-12-11T11:37:15.020Z,91.71
2018-12-11T11:38:15.147Z,91.04
2018-12-11T11:39:15.276Z,91.24
2018-12-11T11:40:15.444Z,92.09
2018-12-11T11:41:15.563Z,91.61
2018-12-11T11:42:15.694Z,91.71
2018-12-11T11:43:15.830Z,91.04
2018-12-11T11:44:15.961Z,91.33
2018-12-11T11:45:16.093Z,91.52
2018-12-11T11:46:16.221Z,91.14
2018-12-11T11:47:16.348Z,91.24
2018-12-11T11:48:16.482Z,91.14
2018-12-11T11:49:16.617Z,91.99
2018-12-11T11:50:16.774Z,91.61
2018-12-11T11:51:16.893Z,91.52
2018-12-11T11:52:17.032Z,90.95
2018-12-11T11:53:17.163Z,91.80
2018-12-11T11:54:17.298Z,91.71
2018-12-11T11:55:17.428Z,91.61
2018-12-11T11:56:17.565Z,91.71
2018-12-11T11:57:17.696Z,91.80
2018-12-11T11:58:17.823Z,91.71
2018-12-11T11:59:17.986Z,91.71
2018-12-11T12:00:18.630Z,91.09
2018-12-11T12:01:18.267Z,91.71
2018-12-11T12:02:18.394Z,91.33
2018-12-11T12:03:18.524Z,91.52
2018-12-11T12:04:18.656Z,91.52
2018-12-11T12:05:18.794Z,91.61
2018-12-11T12:06:18.931Z,91.89
2018-12-11T12:07:19.060Z,91.42
2018-12-11T12:08:19.185Z,91.71
2018-12-11T12:09:19.319Z,91.71
2018-12-11T12:10:19.448Z,91.33
2018-12-11T12:11:19.577Z,91.52
2018-12-11T12:12:19.743Z,90.85
2018-12-11T12:13:19.870Z,90.47
2018-12-11T12:14:19.996Z,90.09
2018-12-11T12:15:20.119Z,90.28
2018-12-11T12:16:20.284Z,90.19
2018-12-11T12:17:20.415Z,90.28
2018-12-11T12:18:20.543Z,90.19
2018-12-11T12:19:20.672Z,90.09
2018-12-11T12:20:20.821Z,90.19
2018-12-11T12:21:20.933Z,90.09
2018-12-11T12:22:21.421Z,90.00
2018-12-11T12:23:21.227Z,90.09
2018-12-11T12:24:21.357Z,90.00
2018-12-11T12:25:21.483Z,90.19
2018-12-11T12:26:21.646Z,89.90
2018-12-11T12:27:21.838Z,90.19
2018-12-11T12:28:21.843Z,89.62
2018-12-11T12:29:21.971Z,89.53
2018-12-11T12:30:22.163Z,89.14
2018-12-11T12:31:22.268Z,89.53
2018-12-11T12:32:22.272Z,89.72
2018-12-11T12:33:23.123Z,88.95
2018-12-11T12:34:22.641Z,88.86
2018-12-11T12:35:22.577Z,89.72
2018-12-11T12:36:22.710Z,88.95
2018-12-11T12:37:22.840Z,88.67
2018-12-11T12:38:22.969Z,88.86
2018-12-11T12:39:23.100Z,88.86
2018-12-11T12:40:23.260Z,88.95
2018-12-11T12:41:23.391Z,88.81
2018-12-11T12:42:23.532Z,88.95
2018-12-11T12:43:23.655Z,88.67
2018-12-11T12:44:23.801Z,88.62
2018-12-11T12:45:45.062Z,88.39
2018-12-11T12:46:24.062Z,88.62
2018-12-11T12:47:24.202Z,88.53
2018-12-11T12:48:24.338Z,88.43
2018-12-11T12:49:24.481Z,87.86
2018-12-11T12:50:24.658Z,87.82
2018-12-11T12:51:24.794Z,87.82
2018-12-11T12:52:24.949Z,87.76
2018-12-11T12:53:25.068Z,87.86
2018-12-11T12:54:25.189Z,87.91